• Join FlightAware (Why Join?)
  • Login
  • US Flag 
11:44PM EDT


 

Airport Tracker/Info


-or-


 

Live Flight TrackerFlight Track Log ✈ N45NS ✈ 02-Mar-2014 ✈ KLNK - KEGE

Flight Track Log - Related Links

Times and Time Zones

All times are in EST time to prevent confusion due to time zone crossing. See the N45NS flight status page for this flight to view local times or setup timezone preferences in your user account.

Time Position Orientation Groundspeed Altitude Reporting Facility
EST Latitude Longitude Course Direction KTS MPH feet Rate Location/Type
01:38PM 40.8675 -96.7817 315° West 188 216 2,600  Level Minneapolis Center
01:40PM 40.8906 -96.8700 289° West 250 288 5,500 3,240 Climbing Minneapolis Center
01:41PM 40.8778 -96.9869 262° West 262 302 9,900 3,780 Climbing Minneapolis Center
01:42PM 40.8689 -97.0903 264° West 276 318 13,300 3,180 Climbing Minneapolis Center
01:43PM 40.8592 -97.1936 263° West 280 322 16,500 2,820 Climbing Minneapolis Center
01:44PM 40.8492 -97.2958 263° West 280 322 19,200 2,700 Climbing Minneapolis Center
01:45PM 40.8406 -97.4069 264° West 280 322 22,200 2,580 Climbing Minneapolis Center
01:46PM 40.8286 -97.5131 262° West 287 330 24,600 2,280 Climbing Minneapolis Center
01:47PM 40.8150 -97.6208 261° West 295 339 27,000 2,520 Climbing Minneapolis Center
01:48PM 40.7828 -97.7144 246° West 283 326 29,800 2,340 Climbing Minneapolis Center
01:49PM 40.7583 -97.8078 251° West 274 315 31,800 1,800 Climbing Minneapolis Center
01:50PM 40.7386 -97.9014 254° West 266 306 33,600 1,020 Climbing Minneapolis Center
01:51PM 40.7297 -98.0272 265° West 282 325 34,000 180 Climbing Minneapolis Center
01:52PM 40.7058 -98.1422 255° West 315 362 34,000 420 Level Minneapolis Center
01:53PM 40.6731 -98.2581 250° West 329 379 34,900 960 Climbing Minneapolis Center
01:54PM 40.6444 -98.3717 252° West 329 379 36,000 480 Climbing Minneapolis Center
01:55PM 40.6178 -98.4878 253° West 328 377 36,000 420 Level Minneapolis Center
01:56PM 40.6008 -98.6136 260° West 340 391 36,900 900 Climbing Minneapolis Center
01:57PM 40.5961 -98.7381 267° West 341 392 37,900 480 Climbing Minneapolis Center
01:58PM 40.5886 -98.8594 265° West 334 384 38,000  Climbing Minneapolis Center
01:59PM 40.5822 -98.9858 266° West 338 389 38,000  Level Minneapolis Center
02:00PM 40.5725 -99.1406 265° West 346 398 38,000  Level Minneapolis Center
02:01PM 40.5694 -99.1928 266° West 352 405 38,000  Level Denver Center
02:02PM 40.5619 -99.3219 266° West 352 405 38,000  Level Denver Center
02:03PM 40.5539 -99.4500 265° West 352 405 38,000  Level Denver Center
02:04PM 40.5439 -99.6042 265° West 352 405 38,000  Level Denver Center
02:05PM 40.5367 -99.7319 266° West 350 403 38,000  Level Denver Center
02:06PM 40.5283 -99.8600 265° West 351 404 38,000  Level Denver Center
02:07PM 40.5189 -99.9922 265° West 351 404 38,000  Level Denver Center
02:08PM 40.5114 -100.1164 265° West 352 405 38,000  Level Denver Center
02:09PM 40.5014 -100.2611 265° West 354 407 38,000  Level Denver Center
02:10PM 40.4931 -100.3844 265° West 354 407 38,000  Level Denver Center
02:11PM 40.4822 -100.5300 264° West 355 409 38,000  Level Denver Center
02:12PM 40.4739 -100.6553 265° West 356 410 38,000  Level Denver Center
02:13PM 40.4631 -100.8017 264° West 356 410 38,000  Level Denver Center
02:14PM 40.4531 -100.9264 264° West 356 410 38,000  Level Denver Center
02:15PM 40.4386 -101.0511 261° West 357 411 38,000  Level Denver Center
02:16PM 40.4206 -101.1978 261° West 361 415 38,000  Level Denver Center
02:17PM 40.4042 -101.3225 260° West 362 417 38,000  Level Denver Center
02:18PM 40.3861 -101.4700 261° West 363 418 38,000  Level Denver Center
02:19PM 40.3689 -101.5967 260° West 366 421 38,000  Level Denver Center
02:20PM 40.3503 -101.7464 261° West 369 425 38,000  Level Denver Center
02:22PM 40.3275 -101.9169 260° West 371 427 38,000  Level Denver Center
02:23PM 40.3117 -102.0456 261° West 371 427 38,000  Level Denver Center
02:24PM 40.2936 -102.1722 259° West 371 427 38,000  Level Denver Center
02:25PM 40.2733 -102.3208 260° West 372 428 38,000  Level Denver Center
02:26PM 40.2575 -102.4492 261° West 372 428 38,000  Level Denver Center
02:27PM 40.2356 -102.6011 259° West 371 427 38,000  Level Denver Center
02:28PM 40.2200 -102.7147 260° West 371 427 38,000  Level Denver Center
02:29PM 40.1981 -102.8736 260° West 371 427 38,000  Level Denver Center
02:30PM 40.1800 -103.0058 260° West 371 427 38,000  Level Denver Center
02:31PM 40.1608 -103.1381 259° West 372 428 38,000  Level Denver Center
02:32PM 40.1469 -103.2708 262° West 372 428 38,000  Level Denver Center
02:33PM 40.1383 -103.4061 265° West 372 428 38,000  Level Denver Center
02:34PM 40.1267 -103.5689 265° West 375 432 38,000 -420 Level Denver Center
02:35PM 40.1178 -103.7042 265° West 377 434 37,200 -900 Descending Denver Center
02:36PM 40.1075 -103.8414 264° West 379 436 36,200 -960 Descending Denver Center
02:37PM 40.0969 -103.9797 264° West 383 441 35,300 -960 Descending Denver Center
02:38PM 40.0861 -104.1219 264° West 389 448 34,300 -960 Descending Denver Center
02:39PM 40.0753 -104.2636 264° West 394 453 33,400 -1,020 Descending Denver Center
02:40PM 40.0619 -104.4336 264° West 395 455 32,200 -1,080 Descending Denver Center
02:41PM 40.0511 -104.5686 264° West 384 442 31,200 -960 Descending Denver Center
02:43PM 40.0336 -104.8333 270° West 373 429 29,300 -1,020 Descending Denver Center
02:44PM 40.0317 -104.9953 269° West 373 429 28,200 -1,020 Descending Denver Center
02:45PM 40.0300 -105.1294 269° West 376 433 27,200 -600 Descending Denver Center
02:46PM 40.0283 -105.2672 269° West 377 434 27,000 -300 Descending Denver Center
02:47PM 40.0261 -105.4069 269° West 384 442 26,600 -720 Descending Denver Center
02:49PM 40.0222 -105.5514 268° West 397 457 25,600 -1,140 Descending Denver Center
02:50PM 40.0194 -105.7269 269° West 403 464 24,300 -780 Descending Denver Center
02:51PM 40.0161 -105.8706 268° West 402 463 24,000 -180 Descending Denver Center
02:52PM 40.0128 -106.0167 268° West 401 461 24,000 -240 Level Denver Center
02:53PM 40.0097 -106.1631 268° West 402 463 23,500 -1,200 Descending Denver Center
02:54PM 40.0064 -106.3031 268° West 395 455 21,500 -2,040 Descending Denver Center
02:55PM 39.9742 -106.4386 253° West 397 457 19,300 -2,040 Descending Denver Center
02:56PM 39.8767 -106.4964 204° Southwest 390 449 17,300 -1,620 Descending Denver Center
02:57PM 39.7900 -106.5383 200° South 341 392 16,000 -660 Descending Denver Center
02:58PM 39.7922 -106.6508 272° West 265 305 16,000  Level Denver Center
02:59PM 39.8050 -106.7428 280° West 262 302 16,000  Level Denver Center
03:00PM 39.8311 -106.8258 292° West 265 305 16,000  Level Denver Center
03:01PM 39.9061 -106.8239 North 270 311 16,000 -300 Level Denver Center
03:02PM 39.9794 -106.8144 North 268 308 15,500 -600 Descending Denver Center
03:03PM 40.0478 -106.8072 North 250 288 14,800 -780 Descending Denver Center
03:04PM 40.1058 -106.7575 33° Northeast 228 262 14,000 -420 Descending Denver Center
03:05PM 40.0978 -106.6947 100° East 223 257 14,000  Level Denver Center
03:06PM 40.0394 -106.6625 157° South 227 261 14,000  Level Denver Center
03:07PM 39.9806 -106.6331 159° South 227 261 14,000  Level Denver Center
03:08PM 39.9222 -106.6028 158° South 227 261 14,000  Level Denver Center
03:09PM 39.8619 -106.5711 158° South 227 261 14,000  Level Denver Center
03:10PM 39.8014 -106.5392 158° South 228 262 14,000 -420 Level Denver Center
03:11PM 39.7339 -106.5550 190° South 230 265 13,200 -660 Descending Denver Center
03:12PM 39.6875 -106.5964 214° Southwest 215 247 12,700 -960 Descending Denver Center
03:13PM 39.6794 -106.6683 262° West 203 234 11,300 -1,380 Descending Denver Center
03:14PM 39.6644 -106.7575 258° West 206 237 9,900 -1,440 Descending Denver Center
03:15PM 39.6525 -106.8211 256° West 191 220 8,400 -1,380 Descending Denver Center
03:16PM 39.6456 -106.8814 262° West 179 206 7,100 -1,260 Descending Denver Center